sensor_id;sensor_type;location;lat;lon;timestamp;P1;durP1;ratioP1;P2;durP2;ratioP2
577;SDS011;275;48.492;9.214;2023-02-28T00:01:05;5.95;;;5.28;;
577;SDS011;275;48.492;9.214;2023-02-28T00:03:32;5.93;;;5.43;;
577;SDS011;275;48.492;9.214;2023-02-28T00:06:00;5.95;;;5.45;;
577;SDS011;275;48.492;9.214;2023-02-28T00:08:27;6.78;;;6.07;;
577;SDS011;275;48.492;9.214;2023-02-28T00:10:54;7.28;;;5.75;;
577;SDS011;275;48.492;9.214;2023-02-28T00:13:21;7.10;;;5.95;;
577;SDS011;275;48.492;9.214;2023-02-28T00:15:57;6.47;;;5.88;;
577;SDS011;275;48.492;9.214;2023-02-28T00:18:26;5.60;;;5.10;;
577;SDS011;275;48.492;9.214;2023-02-28T00:20:53;6.18;;;5.07;;
577;SDS011;275;48.492;9.214;2023-02-28T00:23:20;6.43;;;5.80;;
577;SDS011;275;48.492;9.214;2023-02-28T00:25:47;6.57;;;5.97;;
577;SDS011;275;48.492;9.214;2023-02-28T00:28:14;6.50;;;5.90;;
577;SDS011;275;48.492;9.214;2023-02-28T00:30:42;6.95;;;6.35;;
577;SDS011;275;48.492;9.214;2023-02-28T00:33:09;6.78;;;5.75;;
577;SDS011;275;48.492;9.214;2023-02-28T00:35:38;6.30;;;5.70;;
577;SDS011;275;48.492;9.214;2023-02-28T00:38:05;6.18;;;5.68;;
577;SDS011;275;48.492;9.214;2023-02-28T00:40:31;6.72;;;6.13;;
577;SDS011;275;48.492;9.214;2023-02-28T00:42:58;6.00;;;5.50;;
577;SDS011;275;48.492;9.214;2023-02-28T00:45:25;7.72;;;6.28;;
577;SDS011;275;48.492;9.214;2023-02-28T00:47:52;6.30;;;5.70;;
577;SDS011;275;48.492;9.214;2023-02-28T00:50:19;6.57;;;5.97;;
577;SDS011;275;48.492;9.214;2023-02-28T00:52:47;7.70;;;6.85;;
577;SDS011;275;48.492;9.214;2023-02-28T00:55:14;7.03;;;5.80;;
577;SDS011;275;48.492;9.214;2023-02-28T00:57:41;8.25;;;6.10;;
577;SDS011;275;48.492;9.214;2023-02-28T01:00:08;7.75;;;6.85;;
577;SDS011;275;48.492;9.214;2023-02-28T01:02:36;6.40;;;5.72;;
577;SDS011;275;48.492;9.214;2023-02-28T01:05:03;6.45;;;5.75;;
577;SDS011;275;48.492;9.214;2023-02-28T01:07:30;6.30;;;5.70;;
577;SDS011;275;48.492;9.214;2023-02-28T01:09:58;7.25;;;6.57;;
577;SDS011;275;48.492;9.214;2023-02-28T01:12:25;6.07;;;5.47;;
577;SDS011;275;48.492;9.214;2023-02-28T01:14:52;7.22;;;6.13;;
577;SDS011;275;48.492;9.214;2023-02-28T01:17:18;7.35;;;6.13;;
577;SDS011;275;48.492;9.214;2023-02-28T01:19:45;6.60;;;5.95;;
577;SDS011;275;48.492;9.214;2023-02-28T01:22:12;6.63;;;6.00;;
577;SDS011;275;48.492;9.214;2023-02-28T01:24:39;6.60;;;5.95;;
577;SDS011;275;48.492;9.214;2023-02-28T01:27:07;6.40;;;5.63;;
577;SDS011;275;48.492;9.214;2023-02-28T01:29:34;7.10;;;6.50;;
577;SDS011;275;48.492;9.214;2023-02-28T01:32:00;6.53;;;5.93;;
577;SDS011;275;48.492;9.214;2023-02-28T01:34:27;6.55;;;5.95;;
577;SDS011;275;48.492;9.214;2023-02-28T01:36:54;6.53;;;5.93;;
577;SDS011;275;48.492;9.214;2023-02-28T01:39:23;6.50;;;5.70;;
577;SDS011;275;48.492;9.214;2023-02-28T01:41:50;7.97;;;6.72;;
577;SDS011;275;48.492;9.214;2023-02-28T01:47:23;6.57;;;6.07;;
577;SDS011;275;48.492;9.214;2023-02-28T01:49:51;6.47;;;5.97;;
577;SDS011;275;48.492;9.214;2023-02-28T01:52:19;7.60;;;6.10;;
577;SDS011;275;48.492;9.214;2023-02-28T01:54:49;7.20;;;6.60;;
577;SDS011;275;48.492;9.214;2023-02-28T01:57:18;6.53;;;5.82;;
577;SDS011;275;48.492;9.214;2023-02-28T01:59:49;7.30;;;6.70;;
577;SDS011;275;48.492;9.214;2023-02-28T02:02:20;6.90;;;6.30;;
577;SDS011;275;48.492;9.214;2023-02-28T02:04:51;7.20;;;6.50;;
577;SDS011;275;48.492;9.214;2023-02-28T02:07:21;6.13;;;5.35;;
577;SDS011;275;48.492;9.214;2023-02-28T02:09:49;7.03;;;6.40;;
577;SDS011;275;48.492;9.214;2023-02-28T02:12:20;7.13;;;6.53;;
577;SDS011;275;48.492;9.214;2023-02-28T02:14:58;6.70;;;6.10;;
577;SDS011;275;48.492;9.214;2023-02-28T02:17:32;7.55;;;6.28;;
577;SDS011;275;48.492;9.214;2023-02-28T02:20:16;7.07;;;6.38;;
577;SDS011;275;48.492;9.214;2023-02-28T02:23:29;6.80;;;6.10;;
577;SDS011;275;48.492;9.214;2023-02-28T02:26:08;7.28;;;5.95;;
577;SDS011;275;48.492;9.214;2023-02-28T02:29:01;6.53;;;5.50;;
577;SDS011;275;48.492;9.214;2023-02-28T02:31:51;6.50;;;5.90;;
577;SDS011;275;48.492;9.214;2023-02-28T02:34:41;5.78;;;5.28;;
577;SDS011;275;48.492;9.214;2023-02-28T02:37:16;7.88;;;7.18;;
577;SDS011;275;48.492;9.214;2023-02-28T02:39:54;6.22;;;5.63;;
577;SDS011;275;48.492;9.214;2023-02-28T02:42:29;6.88;;;6.28;;
577;SDS011;275;48.492;9.214;2023-02-28T02:45:03;7.10;;;6.40;;
577;SDS011;275;48.492;9.214;2023-02-28T02:47:35;6.65;;;6.15;;
577;SDS011;275;48.492;9.214;2023-02-28T02:50:06;6.75;;;6.05;;
577;SDS011;275;48.492;9.214;2023-02-28T02:52:38;5.93;;;5.32;;
577;SDS011;275;48.492;9.214;2023-02-28T02:55:11;6.72;;;6.13;;
577;SDS011;275;48.492;9.214;2023-02-28T02:57:42;6.88;;;6.20;;
577;SDS011;275;48.492;9.214;2023-02-28T03:00:12;7.63;;;6.93;;
577;SDS011;275;48.492;9.214;2023-02-28T03:02:40;6.13;;;5.53;;
577;SDS011;275;48.492;9.214;2023-02-28T03:05:12;7.03;;;6.40;;
577;SDS011;275;48.492;9.214;2023-02-28T03:07:42;7.55;;;6.75;;
577;SDS011;275;48.492;9.214;2023-02-28T03:10:28;6.82;;;6.22;;
577;SDS011;275;48.492;9.214;2023-02-28T03:13:09;8.38;;;7.57;;
577;SDS011;275;48.492;9.214;2023-02-28T03:15:50;7.53;;;6.55;;
577;SDS011;275;48.492;9.214;2023-02-28T03:18:24;7.18;;;6.53;;
577;SDS011;275;48.492;9.214;2023-02-28T03:21:01;7.68;;;6.50;;
577;SDS011;275;48.492;9.214;2023-02-28T03:23:35;6.90;;;6.13;;
577;SDS011;275;48.492;9.214;2023-02-28T03:26:11;7.07;;;6.20;;
577;SDS011;275;48.492;9.214;2023-02-28T03:28:45;7.60;;;6.90;;
577;SDS011;275;48.492;9.214;2023-02-28T03:31:19;7.43;;;6.47;;
577;SDS011;275;48.492;9.214;2023-02-28T03:33:50;7.20;;;6.50;;
577;SDS011;275;48.492;9.214;2023-02-28T03:36:24;7.25;;;6.65;;
577;SDS011;275;48.492;9.214;2023-02-28T03:38:55;7.40;;;6.70;;
577;SDS011;275;48.492;9.214;2023-02-28T03:41:29;7.82;;;6.53;;
577;SDS011;275;48.492;9.214;2023-02-28T03:44:00;7.65;;;6.95;;
577;SDS011;275;48.492;9.214;2023-02-28T03:46:31;8.20;;;7.40;;
577;SDS011;275;48.492;9.214;2023-02-28T03:49:03;7.20;;;6.50;;
577;SDS011;275;48.492;9.214;2023-02-28T03:51:38;6.93;;;6.30;;
577;SDS011;275;48.492;9.214;2023-02-28T03:54:09;7.63;;;6.82;;
577;SDS011;275;48.492;9.214;2023-02-28T03:56:39;7.75;;;7.05;;
577;SDS011;275;48.492;9.214;2023-02-28T03:59:10;8.02;;;7.43;;
577;SDS011;275;48.492;9.214;2023-02-28T04:01:42;8.10;;;7.40;;
577;SDS011;275;48.492;9.214;2023-02-28T04:04:10;7.53;;;6.90;;
577;SDS011;275;48.492;9.214;2023-02-28T04:06:39;8.50;;;7.80;;
577;SDS011;275;48.492;9.214;2023-02-28T04:09:07;8.20;;;7.40;;
577;SDS011;275;48.492;9.214;2023-02-28T04:11:36;9.40;;;7.28;;
577;SDS011;275;48.492;9.214;2023-02-28T04:14:05;9.43;;;8.73;;
577;SDS011;275;48.492;9.214;2023-02-28T04:16:33;8.20;;;7.50;;
577;SDS011;275;48.492;9.214;2023-02-28T04:19:02;8.20;;;7.40;;
577;SDS011;275;48.492;9.214;2023-02-28T04:21:30;8.80;;;8.00;;
577;SDS011;275;48.492;9.214;2023-02-28T04:23:59;9.13;;;8.32;;
577;SDS011;275;48.492;9.214;2023-02-28T04:26:28;8.80;;;8.00;;
577;SDS011;275;48.492;9.214;2023-02-28T04:28:55;8.60;;;7.90;;
577;SDS011;275;48.492;9.214;2023-02-28T04:31:22;8.57;;;7.78;;
577;SDS011;275;48.492;9.214;2023-02-28T04:33:49;8.85;;;7.57;;
577;SDS011;275;48.492;9.214;2023-02-28T04:36:16;8.27;;;7.57;;
577;SDS011;275;48.492;9.214;2023-02-28T04:38:44;7.25;;;6.55;;
577;SDS011;275;48.492;9.214;2023-02-28T04:41:13;8.35;;;7.65;;
577;SDS011;275;48.492;9.214;2023-02-28T04:43:39;9.20;;;8.40;;
577;SDS011;275;48.492;9.214;2023-02-28T04:46:06;8.52;;;7.82;;
577;SDS011;275;48.492;9.214;2023-02-28T04:48:36;8.07;;;7.35;;
577;SDS011;275;48.492;9.214;2023-02-28T04:51:05;9.00;;;8.30;;
577;SDS011;275;48.492;9.214;2023-02-28T04:53:33;9.07;;;8.18;;
577;SDS011;275;48.492;9.214;2023-02-28T04:56:01;9.30;;;8.50;;
577;SDS011;275;48.492;9.214;2023-02-28T04:58:30;9.63;;;8.73;;
577;SDS011;275;48.492;9.214;2023-02-28T05:01:01;9.40;;;8.60;;
577;SDS011;275;48.492;9.214;2023-02-28T05:03:28;9.63;;;8.75;;
577;SDS011;275;48.492;9.214;2023-02-28T05:05:55;8.55;;;7.80;;
577;SDS011;275;48.492;9.214;2023-02-28T05:08:22;9.18;;;8.38;;
577;SDS011;275;48.492;9.214;2023-02-28T05:10:50;9.60;;;8.60;;
577;SDS011;275;48.492;9.214;2023-02-28T05:13:16;11.10;;;9.25;;
577;SDS011;275;48.492;9.214;2023-02-28T05:15:45;9.07;;;8.25;;
577;SDS011;275;48.492;9.214;2023-02-28T05:18:11;9.77;;;8.88;;
577;SDS011;275;48.492;9.214;2023-02-28T05:20:38;9.75;;;8.95;;
577;SDS011;275;48.492;9.214;2023-02-28T05:23:05;9.80;;;8.90;;
577;SDS011;275;48.492;9.214;2023-02-28T05:25:32;8.98;;;8.25;;
577;SDS011;275;48.492;9.214;2023-02-28T05:27:59;10.65;;;9.65;;
577;SDS011;275;48.492;9.214;2023-02-28T05:30:25;9.55;;;8.55;;
577;SDS011;275;48.492;9.214;2023-02-28T05:32:54;11.13;;;10.23;;
577;SDS011;275;48.492;9.214;2023-02-28T05:35:20;10.48;;;9.45;;
577;SDS011;275;48.492;9.214;2023-02-28T05:37:47;11.20;;;10.30;;
577;SDS011;275;48.492;9.214;2023-02-28T05:40:14;10.77;;;9.77;;
577;SDS011;275;48.492;9.214;2023-02-28T05:42:41;10.68;;;9.65;;
577;SDS011;275;48.492;9.214;2023-02-28T05:45:08;11.32;;;10.25;;
577;SDS011;275;48.492;9.214;2023-02-28T05:47:36;10.75;;;9.85;;
577;SDS011;275;48.492;9.214;2023-02-28T05:50:05;11.93;;;10.93;;
577;SDS011;275;48.492;9.214;2023-02-28T05:52:34;10.85;;;9.85;;
577;SDS011;275;48.492;9.214;2023-02-28T05:55:01;10.73;;;9.82;;
577;SDS011;275;48.492;9.214;2023-02-28T05:57:28;10.90;;;9.90;;
577;SDS011;275;48.492;9.214;2023-02-28T05:59:54;11.88;;;10.80;;
577;SDS011;275;48.492;9.214;2023-02-28T06:02:21;11.32;;;10.43;;
577;SDS011;275;48.492;9.214;2023-02-28T06:04:48;10.93;;;9.98;;
577;SDS011;275;48.492;9.214;2023-02-28T06:07:16;11.30;;;10.40;;
577;SDS011;275;48.492;9.214;2023-02-28T06:09:43;11.82;;;10.73;;
577;SDS011;275;48.492;9.214;2023-02-28T06:12:10;10.88;;;9.98;;
577;SDS011;275;48.492;9.214;2023-02-28T06:14:37;11.38;;;10.38;;
577;SDS011;275;48.492;9.214;2023-02-28T06:17:04;11.80;;;10.70;;
577;SDS011;275;48.492;9.214;2023-02-28T06:19:31;11.52;;;10.43;;
577;SDS011;275;48.492;9.214;2023-02-28T06:21:59;12.73;;;11.52;;
577;SDS011;275;48.492;9.214;2023-02-28T06:24:27;11.90;;;10.90;;
577;SDS011;275;48.492;9.214;2023-02-28T06:26:55;12.07;;;11.07;;
577;SDS011;275;48.492;9.214;2023-02-28T06:29:23;11.50;;;10.30;;
577;SDS011;275;48.492;9.214;2023-02-28T06:31:50;11.70;;;10.55;;
577;SDS011;275;48.492;9.214;2023-02-28T06:34:17;12.82;;;10.90;;
577;SDS011;275;48.492;9.214;2023-02-28T06:36:44;12.35;;;11.20;;
577;SDS011;275;48.492;9.214;2023-02-28T06:39:11;12.80;;;11.70;;
577;SDS011;275;48.492;9.214;2023-02-28T06:41:39;11.73;;;10.63;;
577;SDS011;275;48.492;9.214;2023-02-28T06:44:09;12.52;;;11.25;;
577;SDS011;275;48.492;9.214;2023-02-28T06:46:38;11.75;;;10.65;;
577;SDS011;275;48.492;9.214;2023-02-28T06:49:05;11.90;;;10.90;;
577;SDS011;275;48.492;9.214;2023-02-28T06:51:34;11.02;;;10.13;;
577;SDS011;275;48.492;9.214;2023-02-28T06:54:02;12.13;;;11.02;;
577;SDS011;275;48.492;9.214;2023-02-28T06:56:29;12.88;;;11.68;;
577;SDS011;275;48.492;9.214;2023-02-28T06:58:57;12.13;;;10.95;;
577;SDS011;275;48.492;9.214;2023-02-28T07:01:24;13.13;;;11.85;;
577;SDS011;275;48.492;9.214;2023-02-28T07:03:53;13.07;;;11.82;;
577;SDS011;275;48.492;9.214;2023-02-28T07:06:20;13.77;;;12.38;;
577;SDS011;275;48.492;9.214;2023-02-28T07:08:48;15.63;;;12.45;;
577;SDS011;275;48.492;9.214;2023-02-28T07:11:16;13.52;;;12.32;;
577;SDS011;275;48.492;9.214;2023-02-28T07:13:43;13.32;;;12.23;;
577;SDS011;275;48.492;9.214;2023-02-28T07:16:12;16.05;;;14.65;;
577;SDS011;275;48.492;9.214;2023-02-28T07:18:39;16.10;;;14.63;;
577;SDS011;275;48.492;9.214;2023-02-28T07:21:07;16.40;;;14.80;;
577;SDS011;275;48.492;9.214;2023-02-28T07:23:35;17.10;;;15.40;;
577;SDS011;275;48.492;9.214;2023-02-28T07:26:04;14.30;;;13.10;;
577;SDS011;275;48.492;9.214;2023-02-28T07:28:31;16.65;;;15.25;;
577;SDS011;275;48.492;9.214;2023-02-28T07:31:02;15.43;;;14.13;;
577;SDS011;275;48.492;9.214;2023-02-28T07:33:31;14.77;;;13.57;;
577;SDS011;275;48.492;9.214;2023-02-28T07:36:02;15.43;;;14.23;;
577;SDS011;275;48.492;9.214;2023-02-28T07:38:30;14.90;;;13.70;;
577;SDS011;275;48.492;9.214;2023-02-28T07:40:59;15.48;;;14.07;;
577;SDS011;275;48.492;9.214;2023-02-28T07:43:26;15.13;;;13.93;;
577;SDS011;275;48.492;9.214;2023-02-28T07:45:53;14.80;;;13.60;;
577;SDS011;275;48.492;9.214;2023-02-28T07:48:20;16.45;;;15.05;;
577;SDS011;275;48.492;9.214;2023-02-28T07:50:55;14.45;;;13.23;;
577;SDS011;275;48.492;9.214;2023-02-28T07:53:22;15.98;;;14.45;;
577;SDS011;275;48.492;9.214;2023-02-28T07:55:48;15.02;;;13.80;;
577;SDS011;275;48.492;9.214;2023-02-28T07:58:15;14.90;;;13.70;;
577;SDS011;275;48.492;9.214;2023-02-28T08:00:42;15.82;;;14.52;;
577;SDS011;275;48.492;9.214;2023-02-28T08:03:10;15.70;;;14.30;;
577;SDS011;275;48.492;9.214;2023-02-28T08:05:38;15.43;;;14.13;;
577;SDS011;275;48.492;9.214;2023-02-28T08:08:07;16.98;;;15.43;;
577;SDS011;275;48.492;9.214;2023-02-28T08:10:34;16.80;;;15.15;;
577;SDS011;275;48.492;9.214;2023-02-28T08:13:01;16.20;;;14.90;;
577;SDS011;275;48.492;9.214;2023-02-28T08:15:28;15.32;;;13.82;;
577;SDS011;275;48.492;9.214;2023-02-28T08:17:55;16.35;;;14.90;;
577;SDS011;275;48.492;9.214;2023-02-28T08:20:22;17.52;;;15.93;;
577;SDS011;275;48.492;9.214;2023-02-28T08:22:49;19.00;;;17.30;;
577;SDS011;275;48.492;9.214;2023-02-28T08:25:17;15.65;;;14.35;;
577;SDS011;275;48.492;9.214;2023-02-28T08:27:44;16.42;;;15.13;;
577;SDS011;275;48.492;9.214;2023-02-28T08:30:11;16.15;;;14.85;;
577;SDS011;275;48.492;9.214;2023-02-28T08:32:39;15.90;;;14.50;;
577;SDS011;275;48.492;9.214;2023-02-28T08:35:07;15.18;;;13.65;;
577;SDS011;275;48.492;9.214;2023-02-28T08:37:35;16.02;;;14.63;;
577;SDS011;275;48.492;9.214;2023-02-28T08:40:02;16.63;;;15.15;;
577;SDS011;275;48.492;9.214;2023-02-28T08:42:31;18.25;;;16.65;;
577;SDS011;275;48.492;9.214;2023-02-28T08:44:58;21.52;;;19.38;;
577;SDS011;275;48.492;9.214;2023-02-28T08:47:25;18.42;;;16.83;;
577;SDS011;275;48.492;9.214;2023-02-28T08:49:52;17.92;;;16.35;;
577;SDS011;275;48.492;9.214;2023-02-28T08:52:19;17.38;;;15.77;;
577;SDS011;275;48.492;9.214;2023-02-28T08:54:46;17.95;;;16.30;;
577;SDS011;275;48.492;9.214;2023-02-28T08:57:13;17.08;;;15.57;;
577;SDS011;275;48.492;9.214;2023-02-28T08:59:41;15.63;;;14.15;;
577;SDS011;275;48.492;9.214;2023-02-28T09:02:08;18.50;;;15.48;;
577;SDS011;275;48.492;9.214;2023-02-28T09:04:36;16.80;;;15.50;;
577;SDS011;275;48.492;9.214;2023-02-28T09:07:03;15.38;;;14.10;;
577;SDS011;275;48.492;9.214;2023-02-28T09:09:29;17.42;;;16.02;;
577;SDS011;275;48.492;9.214;2023-02-28T09:11:56;16.42;;;14.93;;
577;SDS011;275;48.492;9.214;2023-02-28T09:14:23;16.73;;;15.32;;
577;SDS011;275;48.492;9.214;2023-02-28T09:16:51;15.80;;;14.30;;
577;SDS011;275;48.492;9.214;2023-02-28T09:19:18;16.02;;;14.65;;
577;SDS011;275;48.492;9.214;2023-02-28T09:21:45;16.30;;;14.88;;
577;SDS011;275;48.492;9.214;2023-02-28T09:24:12;16.77;;;15.38;;
577;SDS011;275;48.492;9.214;2023-02-28T09:26:40;17.73;;;16.13;;
577;SDS011;275;48.492;9.214;2023-02-28T09:29:07;15.50;;;14.20;;
577;SDS011;275;48.492;9.214;2023-02-28T09:31:34;17.15;;;15.80;;
577;SDS011;275;48.492;9.214;2023-02-28T09:34:03;17.83;;;16.27;;
577;SDS011;275;48.492;9.214;2023-02-28T09:36:30;15.70;;;14.27;;
577;SDS011;275;48.492;9.214;2023-02-28T09:38:58;16.60;;;15.13;;
577;SDS011;275;48.492;9.214;2023-02-28T09:41:25;17.50;;;16.08;;
577;SDS011;275;48.492;9.214;2023-02-28T09:43:56;16.90;;;15.32;;
577;SDS011;275;48.492;9.214;2023-02-28T09:46:29;17.88;;;16.27;;
577;SDS011;275;48.492;9.214;2023-02-28T09:49:00;16.45;;;14.95;;
577;SDS011;275;48.492;9.214;2023-02-28T09:51:40;17.85;;;16.15;;
577;SDS011;275;48.492;9.214;2023-02-28T09:54:15;16.73;;;15.23;;
577;SDS011;275;48.492;9.214;2023-02-28T09:56:44;17.38;;;15.88;;
577;SDS011;275;48.492;9.214;2023-02-28T09:59:16;17.40;;;15.77;;
577;SDS011;275;48.492;9.214;2023-02-28T10:01:52;17.05;;;15.50;;
577;SDS011;275;48.492;9.214;2023-02-28T10:04:34;16.85;;;15.40;;
577;SDS011;275;48.492;9.214;2023-02-28T10:07:07;16.00;;;14.60;;
577;SDS011;275;48.492;9.214;2023-02-28T10:09:44;16.13;;;14.60;;
577;SDS011;275;48.492;9.214;2023-02-28T10:12:15;16.00;;;14.50;;
577;SDS011;275;48.492;9.214;2023-02-28T10:14:44;16.80;;;15.13;;
577;SDS011;275;48.492;9.214;2023-02-28T10:17:13;16.05;;;14.75;;
577;SDS011;275;48.492;9.214;2023-02-28T10:19:47;15.63;;;14.32;;
577;SDS011;275;48.492;9.214;2023-02-28T10:22:22;15.68;;;14.20;;
577;SDS011;275;48.492;9.214;2023-02-28T10:24:55;16.40;;;14.95;;
577;SDS011;275;48.492;9.214;2023-02-28T10:27:28;16.65;;;15.25;;
577;SDS011;275;48.492;9.214;2023-02-28T10:29:57;16.17;;;14.77;;
577;SDS011;275;48.492;9.214;2023-02-28T10:32:26;15.80;;;14.40;;
577;SDS011;275;48.492;9.214;2023-02-28T10:34:57;14.68;;;13.23;;
577;SDS011;275;48.492;9.214;2023-02-28T10:37:26;14.50;;;13.20;;
577;SDS011;275;48.492;9.214;2023-02-28T10:39:57;15.60;;;14.20;;
577;SDS011;275;48.492;9.214;2023-02-28T10:42:24;14.80;;;13.43;;
577;SDS011;275;48.492;9.214;2023-02-28T10:45:05;15.77;;;14.48;;
577;SDS011;275;48.492;9.214;2023-02-28T10:47:40;16.88;;;15.27;;
577;SDS011;275;48.492;9.214;2023-02-28T10:50:31;14.95;;;13.60;;
577;SDS011;275;48.492;9.214;2023-02-28T10:53:07;15.50;;;14.13;;
577;SDS011;275;48.492;9.214;2023-02-28T10:55:43;16.95;;;15.35;;
577;SDS011;275;48.492;9.214;2023-02-28T10:58:22;15.00;;;13.70;;
577;SDS011;275;48.492;9.214;2023-02-28T11:00:51;14.18;;;12.98;;
577;SDS011;275;48.492;9.214;2023-02-28T11:03:32;14.75;;;13.45;;
577;SDS011;275;48.492;9.214;2023-02-28T11:06:05;14.18;;;12.88;;
577;SDS011;275;48.492;9.214;2023-02-28T11:08:34;15.70;;;14.43;;
577;SDS011;275;48.492;9.214;2023-02-28T11:11:09;15.93;;;14.25;;
577;SDS011;275;48.492;9.214;2023-02-28T11:13:36;15.70;;;14.25;;
577;SDS011;275;48.492;9.214;2023-02-28T11:16:04;14.98;;;13.68;;
577;SDS011;275;48.492;9.214;2023-02-28T11:18:35;15.05;;;13.75;;
577;SDS011;275;48.492;9.214;2023-02-28T11:21:07;14.30;;;13.05;;
577;SDS011;275;48.492;9.214;2023-02-28T11:23:39;13.82;;;12.63;;
577;SDS011;275;48.492;9.214;2023-02-28T11:26:07;14.15;;;12.95;;
577;SDS011;275;48.492;9.214;2023-02-28T11:28:36;14.60;;;13.20;;
577;SDS011;275;48.492;9.214;2023-02-28T11:31:08;14.90;;;13.60;;
577;SDS011;275;48.492;9.214;2023-02-28T11:33:44;15.98;;;14.48;;
577;SDS011;275;48.492;9.214;2023-02-28T11:36:18;15.98;;;14.38;;
577;SDS011;275;48.492;9.214;2023-02-28T11:38:46;14.45;;;13.15;;
577;SDS011;275;48.492;9.214;2023-02-28T11:41:18;14.95;;;13.55;;
577;SDS011;275;48.492;9.214;2023-02-28T11:44:02;15.48;;;14.05;;
577;SDS011;275;48.492;9.214;2023-02-28T11:46:52;15.15;;;13.85;;
577;SDS011;275;48.492;9.214;2023-02-28T11:49:30;15.05;;;13.60;;
577;SDS011;275;48.492;9.214;2023-02-28T11:52:05;14.40;;;13.20;;
577;SDS011;275;48.492;9.214;2023-02-28T11:54:54;15.18;;;13.70;;
577;SDS011;275;48.492;9.214;2023-02-28T11:57:46;16.30;;;14.77;;
577;SDS011;275;48.492;9.214;2023-02-28T12:00:36;15.45;;;14.15;;
577;SDS011;275;48.492;9.214;2023-02-28T12:03:13;15.68;;;14.10;;
577;SDS011;275;48.492;9.214;2023-02-28T12:05:49;15.38;;;14.07;;
577;SDS011;275;48.492;9.214;2023-02-28T12:08:30;15.98;;;14.48;;
577;SDS011;275;48.492;9.214;2023-02-28T12:11:10;14.88;;;13.48;;
577;SDS011;275;48.492;9.214;2023-02-28T12:13:46;15.48;;;14.07;;
577;SDS011;275;48.492;9.214;2023-02-28T12:16:25;16.00;;;14.50;;
577;SDS011;275;48.492;9.214;2023-02-28T12:19:04;14.93;;;13.63;;
577;SDS011;275;48.492;9.214;2023-02-28T12:21:42;13.80;;;12.70;;
577;SDS011;275;48.492;9.214;2023-02-28T12:27:33;14.43;;;13.02;;
577;SDS011;275;48.492;9.214;2023-02-28T12:30:03;13.27;;;12.10;;
577;SDS011;275;48.492;9.214;2023-02-28T12:32:38;14.82;;;13.52;;
577;SDS011;275;48.492;9.214;2023-02-28T12:35:11;15.27;;;13.90;;
577;SDS011;275;48.492;9.214;2023-02-28T12:37:41;15.63;;;14.27;;
577;SDS011;275;48.492;9.214;2023-02-28T12:40:14;14.98;;;13.68;;
577;SDS011;275;48.492;9.214;2023-02-28T12:42:46;13.43;;;12.13;;
577;SDS011;275;48.492;9.214;2023-02-28T12:45:18;12.15;;;11.15;;
577;SDS011;275;48.492;9.214;2023-02-28T12:47:48;12.82;;;11.63;;
577;SDS011;275;48.492;9.214;2023-02-28T12:50:18;14.38;;;11.77;;
577;SDS011;275;48.492;9.214;2023-02-28T12:52:48;12.88;;;11.70;;
577;SDS011;275;48.492;9.214;2023-02-28T12:55:23;11.75;;;10.77;;
577;SDS011;275;48.492;9.214;2023-02-28T12:58:00;13.75;;;11.63;;
577;SDS011;275;48.492;9.214;2023-02-28T13:00:35;13.35;;;12.02;;
577;SDS011;275;48.492;9.214;2023-02-28T13:06:11;14.88;;;13.55;;
577;SDS011;275;48.492;9.214;2023-02-28T13:08:59;14.10;;;12.68;;
577;SDS011;275;48.492;9.214;2023-02-28T13:11:30;13.90;;;12.02;;
577;SDS011;275;48.492;9.214;2023-02-28T13:14:00;13.20;;;12.00;;
577;SDS011;275;48.492;9.214;2023-02-28T13:16:42;13.30;;;11.98;;
577;SDS011;275;48.492;9.214;2023-02-28T13:19:18;12.05;;;10.82;;
577;SDS011;275;48.492;9.214;2023-02-28T13:21:49;12.32;;;11.23;;
577;SDS011;275;48.492;9.214;2023-02-28T13:36:08;12.07;;;10.87;;
577;SDS011;275;48.492;9.214;2023-02-28T13:38:37;12.00;;;10.80;;
577;SDS011;275;48.492;9.214;2023-02-28T13:44:09;11.47;;;10.43;;
577;SDS011;275;48.492;9.214;2023-02-28T13:47:13;11.63;;;10.47;;
577;SDS011;275;48.492;9.214;2023-02-28T13:49:42;12.60;;;11.40;;
577;SDS011;275;48.492;9.214;2023-02-28T13:52:12;13.18;;;11.98;;
577;SDS011;275;48.492;9.214;2023-02-28T13:54:48;11.65;;;10.55;;
577;SDS011;275;48.492;9.214;2023-02-28T13:57:47;10.90;;;9.70;;
577;SDS011;275;48.492;9.214;2023-02-28T14:00:28;11.30;;;9.98;;
577;SDS011;275;48.492;9.214;2023-02-28T14:03:09;11.50;;;10.53;;
577;SDS011;275;48.492;9.214;2023-02-28T14:05:48;12.48;;;11.35;;
577;SDS011;275;48.492;9.214;2023-02-28T14:08:37;13.05;;;11.25;;
577;SDS011;275;48.492;9.214;2023-02-28T14:11:23;11.50;;;10.50;;
577;SDS011;275;48.492;9.214;2023-02-28T14:13:52;11.90;;;10.73;;
577;SDS011;275;48.492;9.214;2023-02-28T14:16:20;11.73;;;10.73;;
577;SDS011;275;48.492;9.214;2023-02-28T14:18:51;11.85;;;10.77;;
577;SDS011;275;48.492;9.214;2023-02-28T14:21:26;12.68;;;11.48;;
577;SDS011;275;48.492;9.214;2023-02-28T14:24:03;13.02;;;11.93;;
577;SDS011;275;48.492;9.214;2023-02-28T14:26:55;12.45;;;11.25;;
577;SDS011;275;48.492;9.214;2023-02-28T14:29:34;13.50;;;12.45;;
577;SDS011;275;48.492;9.214;2023-02-28T14:32:11;13.63;;;12.40;;
577;SDS011;275;48.492;9.214;2023-02-28T14:34:45;13.27;;;11.32;;
577;SDS011;275;48.492;9.214;2023-02-28T14:37:19;12.52;;;11.43;;
577;SDS011;275;48.492;9.214;2023-02-28T14:39:52;12.90;;;11.80;;
577;SDS011;275;48.492;9.214;2023-02-28T14:42:30;14.85;;;13.45;;
577;SDS011;275;48.492;9.214;2023-02-28T14:44:59;13.35;;;12.07;;
577;SDS011;275;48.492;9.214;2023-02-28T14:47:27;13.60;;;12.35;;
577;SDS011;275;48.492;9.214;2023-02-28T14:49:57;13.50;;;12.05;;
577;SDS011;275;48.492;9.214;2023-02-28T14:52:26;15.05;;;13.60;;
577;SDS011;275;48.492;9.214;2023-02-28T14:54:56;14.05;;;12.85;;
577;SDS011;275;48.492;9.214;2023-02-28T14:57:25;14.90;;;13.60;;
577;SDS011;275;48.492;9.214;2023-02-28T14:59:57;13.35;;;12.15;;
577;SDS011;275;48.492;9.214;2023-02-28T15:02:35;14.30;;;13.00;;
577;SDS011;275;48.492;9.214;2023-02-28T15:05:10;13.30;;;12.20;;
577;SDS011;275;48.492;9.214;2023-02-28T15:08:03;13.43;;;12.10;;
577;SDS011;275;48.492;9.214;2023-02-28T15:10:33;14.50;;;13.07;;
577;SDS011;275;48.492;9.214;2023-02-28T15:13:01;13.55;;;12.35;;
577;SDS011;275;48.492;9.214;2023-02-28T15:15:35;15.75;;;14.30;;
577;SDS011;275;48.492;9.214;2023-02-28T15:18:10;13.45;;;12.25;;
577;SDS011;275;48.492;9.214;2023-02-28T15:20:46;14.40;;;13.00;;
577;SDS011;275;48.492;9.214;2023-02-28T15:23:13;14.35;;;12.90;;
577;SDS011;275;48.492;9.214;2023-02-28T15:25:43;14.13;;;12.82;;
577;SDS011;275;48.492;9.214;2023-02-28T15:28:12;13.15;;;11.73;;
577;SDS011;275;48.492;9.214;2023-02-28T15:30:50;13.98;;;12.57;;
577;SDS011;275;48.492;9.214;2023-02-28T15:33:19;14.68;;;13.38;;
577;SDS011;275;48.492;9.214;2023-02-28T15:35:47;15.30;;;13.82;;
577;SDS011;275;48.492;9.214;2023-02-28T15:38:15;14.15;;;12.77;;
577;SDS011;275;48.492;9.214;2023-02-28T15:40:46;14.48;;;13.13;;
577;SDS011;275;48.492;9.214;2023-02-28T15:43:23;13.27;;;12.13;;
577;SDS011;275;48.492;9.214;2023-02-28T15:45:52;13.52;;;12.35;;
577;SDS011;275;48.492;9.214;2023-02-28T15:48:23;14.77;;;13.30;;
577;SDS011;275;48.492;9.214;2023-02-28T15:50:53;15.02;;;13.73;;
577;SDS011;275;48.492;9.214;2023-02-28T15:53:22;14.93;;;13.73;;
577;SDS011;275;48.492;9.214;2023-02-28T15:55:57;15.20;;;13.75;;
577;SDS011;275;48.492;9.214;2023-02-28T15:58:27;15.18;;;13.77;;
577;SDS011;275;48.492;9.214;2023-02-28T16:01:01;14.52;;;13.18;;
577;SDS011;275;48.492;9.214;2023-02-28T16:03:38;15.00;;;13.80;;
577;SDS011;275;48.492;9.214;2023-02-28T16:06:08;13.00;;;11.73;;
577;SDS011;275;48.492;9.214;2023-02-28T16:08:47;15.45;;;14.15;;
577;SDS011;275;48.492;9.214;2023-02-28T16:11:17;14.95;;;13.65;;
577;SDS011;275;48.492;9.214;2023-02-28T16:13:46;14.27;;;13.05;;